createdAt,value
2019-01-18T00:00:39.294Z,75.07
2019-01-18T00:03:07.343Z,74.88
2019-01-18T00:05:35.302Z,74.41
2019-01-18T00:08:03.383Z,74.30
2019-01-18T00:10:31.272Z,74.38
2019-01-18T00:12:59.254Z,74.48
2019-01-18T00:15:27.559Z,74.08
2019-01-18T00:17:55.923Z,73.97
2019-01-18T00:20:24.267Z,73.91
2019-01-18T00:22:52.913Z,75.04
2019-01-18T00:25:21.113Z,75.30
2019-01-18T00:27:49.406Z,75.58
2019-01-18T00:30:17.540Z,75.73
2019-01-18T00:32:45.510Z,75.33
2019-01-18T00:35:13.757Z,76.05
2019-01-18T00:37:41.743Z,75.93
2019-01-18T00:40:10.772Z,75.78
2019-01-18T00:42:38.707Z,74.98
2019-01-18T00:45:09.801Z,75.26
2019-01-18T00:47:37.854Z,74.74
2019-01-18T00:50:08.191Z,75.01
2019-01-18T00:52:36.111Z,74.81
2019-01-18T00:55:04.649Z,74.85
2019-01-18T00:57:32.669Z,75.00
2019-01-18T01:00:00.658Z,75.33
2019-01-18T01:02:28.650Z,74.41
2019-01-18T01:04:58.766Z,74.08
2019-01-18T01:07:27.071Z,74.23
2019-01-18T01:09:55.044Z,73.57
2019-01-18T01:12:23.012Z,73.27
2019-01-18T01:14:51.331Z,73.69
2019-01-18T01:17:19.606Z,73.18
2019-01-18T01:19:48.054Z,73.06
2019-01-18T01:22:17.467Z,73.14
2019-01-18T01:24:46.006Z,73.00
2019-01-18T01:27:14.289Z,73.59
2019-01-18T01:29:43.205Z,73.45
2019-01-18T01:32:11.900Z,73.74
2019-01-18T01:34:40.251Z,73.62
2019-01-18T01:37:08.894Z,73.79
2019-01-18T01:39:36.898Z,74.27
2019-01-18T01:42:05.341Z,73.80
2019-01-18T01:44:35.152Z,73.55
2019-01-18T01:47:03.236Z,73.70
2019-01-18T01:49:31.254Z,74.24
2019-01-18T01:51:59.425Z,73.90
2019-01-18T01:54:27.536Z,74.02
2019-01-18T01:56:55.493Z,73.96
2019-01-18T01:59:23.851Z,74.12
2019-01-18T02:01:51.882Z,74.19
2019-01-18T02:04:20.254Z,73.61
2019-01-18T02:06:48.291Z,73.21
2019-01-18T02:09:16.564Z,73.41
2019-01-18T02:11:44.748Z,73.12
2019-01-18T02:14:13.062Z,73.21
2019-01-18T02:16:41.064Z,72.88
2019-01-18T02:19:10.124Z,72.60
2019-01-18T02:21:39.017Z,73.26
2019-01-18T02:24:06.941Z,73.41
2019-01-18T02:26:36.326Z,73.33
2019-01-18T02:29:05.284Z,73.68
2019-01-18T02:31:33.331Z,72.85
2019-01-18T02:34:01.699Z,72.92
2019-01-18T02:36:29.939Z,72.65
2019-01-18T02:38:57.971Z,72.66
2019-01-18T02:41:26.047Z,71.45
2019-01-18T02:43:54.395Z,70.71
2019-01-18T02:46:22.944Z,70.86
2019-01-18T02:48:50.997Z,70.56
2019-01-18T02:51:19.292Z,68.45
2019-01-18T02:53:47.336Z,68.63
2019-01-18T02:56:15.387Z,68.76
2019-01-18T02:58:43.430Z,69.26
2019-01-18T03:01:12.477Z,68.54
2019-01-18T03:03:40.494Z,68.05
2019-01-18T03:06:12.175Z,68.08
2019-01-18T03:08:40.230Z,68.17
2019-01-18T03:11:08.571Z,68.24
2019-01-18T03:13:36.597Z,69.09
2019-01-18T03:16:04.568Z,69.63
2019-01-18T03:18:32.676Z,70.36
2019-01-18T03:21:00.810Z,71.63
2019-01-18T03:23:28.989Z,72.35
2019-01-18T03:25:57.412Z,73.55
2019-01-18T03:28:25.365Z,73.58
2019-01-18T03:30:53.373Z,72.82
2019-01-18T03:33:21.380Z,73.13
2019-01-18T03:35:49.481Z,73.98
2019-01-18T03:38:17.481Z,74.45
2019-01-18T03:40:45.456Z,74.43
2019-01-18T03:43:13.421Z,74.28
2019-01-18T03:45:41.659Z,74.72
2019-01-18T03:48:09.655Z,75.09
2019-01-18T03:50:37.832Z,74.72
2019-01-18T03:53:05.781Z,74.60
2019-01-18T03:55:33.749Z,74.02
2019-01-18T03:58:01.994Z,74.59
2019-01-18T04:00:30.199Z,73.91
2019-01-18T04:02:58.435Z,74.22
2019-01-18T04:05:26.943Z,73.84
2019-01-18T04:07:55.132Z,73.40
2019-01-18T04:10:24.288Z,73.27
2019-01-18T04:12:52.494Z,73.02
2019-01-18T04:15:21.339Z,73.47
2019-01-18T04:17:49.616Z,74.56
2019-01-18T04:20:17.899Z,73.54
2019-01-18T04:22:45.956Z,73.49
2019-01-18T04:25:18.006Z,73.90
2019-01-18T04:27:46.267Z,73.11
2019-01-18T04:30:16.851Z,73.29
2019-01-18T04:32:45.009Z,72.71
2019-01-18T04:35:13.420Z,72.90
2019-01-18T04:37:41.723Z,72.48
2019-01-18T04:40:14.493Z,72.89
2019-01-18T04:42:42.466Z,73.77
2019-01-18T04:45:10.453Z,72.14
2019-01-18T04:47:38.743Z,72.08
2019-01-18T04:50:11.661Z,71.86
2019-01-18T04:52:39.607Z,71.71
2019-01-18T04:55:08.331Z,71.74
2019-01-18T04:57:36.658Z,71.36
2019-01-18T05:00:07.095Z,71.14
2019-01-18T05:02:35.093Z,70.42
2019-01-18T05:05:03.078Z,71.19
2019-01-18T05:07:31.684Z,70.96
2019-01-18T05:09:59.984Z,71.19
2019-01-18T05:12:27.992Z,70.94
2019-01-18T05:14:55.970Z,71.32
2019-01-18T05:17:24.276Z,71.66
2019-01-18T05:19:52.306Z,71.06
2019-01-18T05:22:20.287Z,71.09
2019-01-18T05:24:49.441Z,71.37
2019-01-18T05:27:17.732Z,71.05
2019-01-18T05:29:45.694Z,71.13
2019-01-18T05:32:13.986Z,71.10
2019-01-18T05:34:41.966Z,71.49
2019-01-18T05:37:09.922Z,71.65
2019-01-18T05:39:37.951Z,71.63
2019-01-18T05:42:05.948Z,72.29
2019-01-18T05:44:33.936Z,71.94
2019-01-18T05:47:02.242Z,72.68
2019-01-18T05:49:30.541Z,73.15
2019-01-18T05:51:58.503Z,73.14
2019-01-18T05:54:26.521Z,72.35
2019-01-18T05:56:55.617Z,73.02
2019-01-18T05:59:23.671Z,72.80
2019-01-18T06:01:51.970Z,72.71
2019-01-18T06:04:19.972Z,72.37
2019-01-18T06:06:47.957Z,72.36
2019-01-18T06:09:16.220Z,73.35
2019-01-18T06:11:44.188Z,73.18
2019-01-18T06:14:12.295Z,72.84
2019-01-18T06:16:40.217Z,72.69
2019-01-18T06:19:08.177Z,73.18
2019-01-18T06:21:36.411Z,72.99
2019-01-18T06:24:04.406Z,72.50
2019-01-18T06:26:32.354Z,72.30
2019-01-18T06:29:00.350Z,72.90
2019-01-18T06:31:28.377Z,73.32
2019-01-18T06:33:56.332Z,73.32
2019-01-18T06:36:24.617Z,73.63
2019-01-18T06:38:52.823Z,76.77
2019-01-18T06:41:49.433Z,79.00
2019-01-18T06:44:17.703Z,80.92
2019-01-18T06:46:45.641Z,82.12
2019-01-18T06:49:15.569Z,83.19
2019-01-18T06:51:43.529Z,82.25
2019-01-18T06:54:12.179Z,82.93
2019-01-18T06:56:40.138Z,82.04
2019-01-18T06:59:08.146Z,82.41
2019-01-18T07:01:36.114Z,81.13
2019-01-18T07:04:04.098Z,82.13
2019-01-18T07:06:32.087Z,81.13
2019-01-18T07:09:01.737Z,81.59
2019-01-18T07:11:31.418Z,81.03
2019-01-18T07:13:59.385Z,80.21
2019-01-18T07:16:27.787Z,81.22
2019-01-18T07:18:55.786Z,81.53
2019-01-18T07:21:24.173Z,80.77
2019-01-18T07:23:52.246Z,80.28
2019-01-18T07:26:20.532Z,84.03
2019-01-18T07:28:48.842Z,82.29
2019-01-18T07:31:16.828Z,81.88
2019-01-18T07:33:45.073Z,81.73
2019-01-18T07:36:13.354Z,79.02
2019-01-18T07:38:41.844Z,81.05
2019-01-18T07:41:10.418Z,79.78
2019-01-18T07:43:38.716Z,80.63
2019-01-18T07:46:06.702Z,79.86
2019-01-18T07:48:34.969Z,79.46
2019-01-18T07:51:03.095Z,80.33
2019-01-18T07:53:31.137Z,80.15
2019-01-18T07:55:59.248Z,79.54
2019-01-18T07:58:27.404Z,79.99
2019-01-18T08:00:57.542Z,78.47
2019-01-18T08:03:25.563Z,77.42
2019-01-18T08:05:53.585Z,77.38
2019-01-18T08:08:21.557Z,77.40
2019-01-18T08:10:49.513Z,78.36
2019-01-18T08:13:17.508Z,76.94
2019-01-18T08:15:45.851Z,77.06
2019-01-18T08:18:14.373Z,76.82
2019-01-18T08:20:42.361Z,76.84
2019-01-18T08:23:10.502Z,76.43
2019-01-18T08:25:38.484Z,77.04
2019-01-18T08:28:07.670Z,76.54
2019-01-18T08:30:35.674Z,76.14
2019-01-18T08:33:04.878Z,75.95
2019-01-18T08:35:32.840Z,75.88
2019-01-18T08:38:00.914Z,75.54
2019-01-18T08:40:32.771Z,74.91
2019-01-18T08:43:00.750Z,75.67
2019-01-18T08:45:36.458Z,75.57
2019-01-18T08:48:05.722Z,74.86
2019-01-18T08:50:33.677Z,74.79
2019-01-18T08:53:01.696Z,74.57
2019-01-18T08:55:31.203Z,74.01
2019-01-18T08:57:59.124Z,74.33
2019-01-18T09:00:28.163Z,72.94
2019-01-18T09:02:56.146Z,72.38
2019-01-18T09:05:24.769Z,72.40
2019-01-18T09:07:53.404Z,70.37
2019-01-18T09:10:22.987Z,71.04
2019-01-18T09:12:50.995Z,70.48
2019-01-18T09:15:18.913Z,70.06
2019-01-18T09:17:46.884Z,69.83
2019-01-18T09:20:21.421Z,70.22
2019-01-18T09:22:49.412Z,70.30
2019-01-18T09:25:17.393Z,70.48
2019-01-18T09:27:45.682Z,70.69
2019-01-18T09:30:19.742Z,70.43
2019-01-18T09:32:48.442Z,69.33
2019-01-18T09:35:17.923Z,69.47
2019-01-18T09:37:46.213Z,69.86
2019-01-18T09:40:21.337Z,69.69
2019-01-18T09:42:49.307Z,69.86
2019-01-18T09:45:17.670Z,69.76
2019-01-18T09:47:46.089Z,69.69
2019-01-18T09:50:17.489Z,70.09
2019-01-18T09:52:45.612Z,69.25
2019-01-18T09:55:13.838Z,69.32
2019-01-18T09:57:42.355Z,68.77
2019-01-18T10:00:21.001Z,68.72
2019-01-18T10:02:49.246Z,68.18
2019-01-18T10:05:17.562Z,69.52
2019-01-18T10:07:45.542Z,69.07
2019-01-18T10:10:16.369Z,68.85
2019-01-18T10:12:45.936Z,69.05
2019-01-18T10:15:18.014Z,68.93
2019-01-18T10:17:45.966Z,68.50
2019-01-18T10:20:15.098Z,68.15
2019-01-18T10:22:45.188Z,68.19
2019-01-18T10:25:14.038Z,68.32
2019-01-18T10:27:42.165Z,69.15
2019-01-18T10:30:16.371Z,69.49
2019-01-18T10:32:46.598Z,69.69
2019-01-18T10:35:15.983Z,69.61
2019-01-18T10:37:45.349Z,69.19
2019-01-18T10:40:13.534Z,69.26
2019-01-18T10:42:41.845Z,68.83
2019-01-18T10:45:11.202Z,69.45
2019-01-18T10:47:39.462Z,68.18
2019-01-18T10:50:14.543Z,68.04
2019-01-18T10:52:42.726Z,67.44
2019-01-18T10:55:10.907Z,67.54
2019-01-18T10:57:38.917Z,68.75
2019-01-18T11:00:14.095Z,66.65
2019-01-18T11:02:42.046Z,65.54
2019-01-18T11:05:10.822Z,64.64
2019-01-18T11:07:39.081Z,64.83
2019-01-18T11:10:09.139Z,65.26
2019-01-18T11:12:37.054Z,64.59
2019-01-18T11:15:08.588Z,63.70
2019-01-18T11:17:36.871Z,63.38
2019-01-18T11:20:10.864Z,63.11
2019-01-18T11:22:39.021Z,62.62
2019-01-18T11:25:07.284Z,62.60
2019-01-18T11:27:35.502Z,62.41
2019-01-18T11:30:07.425Z,63.17
2019-01-18T11:32:35.426Z,63.19
2019-01-18T11:35:04.519Z,62.80
2019-01-18T11:37:32.737Z,62.64
2019-01-18T11:40:01.115Z,62.14
2019-01-18T11:42:29.409Z,60.03
2019-01-18T11:44:57.801Z,59.48
2019-01-18T11:47:25.772Z,60.21
2019-01-18T11:49:54.085Z,59.26
2019-01-18T11:52:22.125Z,60.23
2019-01-18T11:54:50.483Z,59.62
2019-01-18T11:57:18.776Z,60.77
2019-01-18T11:59:49.096Z,60.70
2019-01-18T12:02:22.034Z,59.49
2019-01-18T12:04:46.520Z,58.72
2019-01-18T12:07:14.570Z,59.58
2019-01-18T12:09:43.149Z,59.09
2019-01-18T12:12:11.033Z,60.27
2019-01-18T12:14:39.055Z,61.72
2019-01-18T12:17:07.018Z,60.62
2019-01-18T12:19:34.944Z,59.58
2019-01-18T12:22:03.753Z,58.38
2019-01-18T12:24:31.712Z,58.20
2019-01-18T12:27:00.201Z,58.25
2019-01-18T12:29:28.457Z,59.38
2019-01-18T12:31:56.518Z,59.20
2019-01-18T12:34:24.501Z,58.45
2019-01-18T12:36:58.585Z,59.85
2019-01-18T12:39:22.646Z,59.82
2019-01-18T12:41:50.951Z,60.28
2019-01-18T12:44:18.901Z,61.33
2019-01-18T12:46:46.923Z,61.46
2019-01-18T12:49:14.871Z,60.90
2019-01-18T12:51:42.855Z,60.16
2019-01-18T12:54:11.177Z,60.47
2019-01-18T12:56:39.176Z,61.60
2019-01-18T12:59:07.155Z,61.54
2019-01-18T13:01:36.045Z,62.96
2019-01-18T13:04:08.185Z,63.49
2019-01-18T13:06:34.146Z,63.18
2019-01-18T13:09:02.632Z,63.03
2019-01-18T13:11:31.671Z,63.26
2019-01-18T13:13:59.775Z,62.52
2019-01-18T13:16:41.725Z,62.95
2019-01-18T13:19:20.066Z,63.03
2019-01-18T13:21:49.268Z,63.02
2019-01-18T13:24:17.710Z,63.03
2019-01-18T13:26:45.832Z,63.15
2019-01-18T13:29:14.332Z,63.33
2019-01-18T13:31:42.503Z,64.02
2019-01-18T13:34:10.642Z,64.38
2019-01-18T13:36:39.243Z,63.71
2019-01-18T13:39:09.281Z,63.28
2019-01-18T13:41:37.498Z,63.41
2019-01-18T13:44:05.925Z,62.48
2019-01-18T13:46:35.358Z,62.54
2019-01-18T13:49:03.359Z,62.62
2019-01-18T13:51:31.858Z,62.80
2019-01-18T13:53:59.763Z,63.77
2019-01-18T13:56:29.182Z,62.75
2019-01-18T13:58:57.637Z,62.97
2019-01-18T14:01:25.644Z,63.89
2019-01-18T14:03:53.857Z,63.61
2019-01-18T14:06:22.127Z,62.94
2019-01-18T14:08:50.159Z,64.06
2019-01-18T14:11:18.520Z,64.96
2019-01-18T14:13:47.090Z,65.33
2019-01-18T14:16:15.074Z,64.77
2019-01-18T14:18:43.410Z,64.38
2019-01-18T14:21:12.995Z,64.39
2019-01-18T14:23:41.102Z,64.55
2019-01-18T14:26:09.059Z,64.96
2019-01-18T14:28:37.222Z,65.16
2019-01-18T14:31:06.033Z,63.94
2019-01-18T14:33:35.064Z,64.10
2019-01-18T14:36:03.403Z,64.43
2019-01-18T14:38:31.409Z,63.93
2019-01-18T14:40:59.369Z,64.68
2019-01-18T14:43:27.657Z,64.78
2019-01-18T14:45:55.720Z,65.41
2019-01-18T14:48:24.173Z,66.01
2019-01-18T14:50:52.159Z,66.62
2019-01-18T14:53:20.148Z,66.90
2019-01-18T14:55:48.131Z,66.20
2019-01-18T14:58:16.100Z,66.06
2019-01-18T15:00:44.181Z,65.62
2019-01-18T15:03:14.182Z,66.54
2019-01-18T15:05:42.478Z,64.63
2019-01-18T15:08:10.441Z,63.92
2019-01-18T15:10:38.409Z,64.38
2019-01-18T15:13:16.394Z,65.79
2019-01-18T15:15:44.794Z,66.37
2019-01-18T15:18:13.484Z,68.00
2019-01-18T15:20:41.568Z,66.54
2019-01-18T15:23:10.592Z,67.32
2019-01-18T15:25:38.738Z,67.83
2019-01-18T15:28:06.788Z,68.45
2019-01-18T15:30:34.982Z,69.19
2019-01-18T15:33:09.044Z,70.97
2019-01-18T15:35:36.736Z,71.09
2019-01-18T15:38:07.534Z,71.04
2019-01-18T15:40:37.460Z,72.02
2019-01-18T15:43:05.789Z,71.98
2019-01-18T15:45:33.714Z,71.89
2019-01-18T15:48:02.088Z,71.77
2019-01-18T15:50:32.513Z,72.76
2019-01-18T15:53:00.637Z,73.51
2019-01-18T15:55:28.956Z,74.09
2019-01-18T15:57:57.394Z,72.69
2019-01-18T16:00:28.946Z,73.20
2019-01-18T16:02:56.884Z,73.62
2019-01-18T16:05:26.664Z,73.83
2019-01-18T16:07:54.688Z,74.44
2019-01-18T16:10:25.262Z,75.04
2019-01-18T16:12:54.187Z,75.31
2019-01-18T16:15:26.654Z,75.64
2019-01-18T16:17:54.776Z,75.46
2019-01-18T16:20:23.587Z,75.67
2019-01-18T16:22:51.928Z,75.96
2019-01-18T16:25:26.809Z,75.85
2019-01-18T16:27:55.446Z,76.33
2019-01-18T16:30:23.894Z,76.71
2019-01-18T16:32:52.635Z,77.71
2019-01-18T16:35:20.742Z,79.41
2019-01-18T16:37:49.279Z,79.18
2019-01-18T16:40:28.129Z,79.45
2019-01-18T16:43:03.048Z,80.63
2019-01-18T16:45:31.803Z,79.08
2019-01-18T16:48:00.079Z,80.09
2019-01-18T16:50:28.257Z,79.11
2019-01-18T16:52:56.383Z,79.82
2019-01-18T16:55:26.300Z,80.22
2019-01-18T16:57:55.744Z,80.54
2019-01-18T17:00:36.954Z,80.96
2019-01-18T17:03:06.632Z,81.63
2019-01-18T17:05:35.054Z,82.00
2019-01-18T17:08:03.118Z,81.62
2019-01-18T17:10:31.314Z,81.12
2019-01-18T17:12:59.702Z,80.46
2019-01-18T17:15:27.877Z,80.93
2019-01-18T17:17:55.963Z,80.85
2019-01-18T17:20:27.290Z,81.24
2019-01-18T17:22:55.477Z,80.89
2019-01-18T17:25:23.574Z,80.13
2019-01-18T17:27:51.828Z,81.04
2019-01-18T17:30:19.919Z,80.12
2019-01-18T17:32:48.916Z,78.78
2019-01-18T17:35:34.593Z,78.43
2019-01-18T17:38:23.184Z,78.59
2019-01-18T17:41:21.725Z,78.98
2019-01-18T17:44:42.759Z,78.36
2019-01-18T17:48:00.289Z,78.90
2019-01-18T17:51:13.314Z,79.29
2019-01-18T17:54:37.798Z,78.96
2019-01-18T17:57:45.733Z,79.41
2019-01-18T18:01:45.387Z,79.33
2019-01-18T18:05:06.237Z,79.00
2019-01-18T18:08:31.520Z,78.80
2019-01-18T18:12:07.251Z,79.21
2019-01-18T18:15:17.731Z,79.12
2019-01-18T18:18:43.628Z,79.04
2019-01-18T18:21:49.930Z,79.46
2019-01-18T18:24:52.705Z,81.21
2019-01-18T18:28:20.550Z,82.96
2019-01-18T18:31:25.896Z,81.19
2019-01-18T18:34:55.914Z,81.03
2019-01-18T18:38:28.656Z,80.49
2019-01-18T18:42:19.069Z,80.80
2019-01-18T18:46:21.700Z,81.11
2019-01-18T18:49:32.307Z,81.07
2019-01-18T18:53:02.132Z,81.25
2019-01-18T18:56:27.937Z,81.18
2019-01-18T18:59:34.199Z,81.86
2019-01-18T19:03:00.647Z,81.74
2019-01-18T19:06:24.711Z,82.32
2019-01-18T19:09:17.220Z,81.92
2019-01-18T19:12:12.585Z,81.78
2019-01-18T19:15:18.605Z,81.93
2019-01-18T19:18:10.639Z,81.74
2019-01-18T19:21:37.868Z,82.17
2019-01-18T19:25:19.781Z,81.65
2019-01-18T19:28:36.471Z,81.66
2019-01-18T19:32:05.011Z,81.69
2019-01-18T19:34:58.290Z,81.39
2019-01-18T19:38:16.602Z,80.86
2019-01-18T19:41:42.765Z,80.31
2019-01-18T19:45:17.163Z,80.12
2019-01-18T19:48:42.038Z,80.46
2019-01-18T19:52:12.715Z,80.24
2019-01-18T19:55:06.450Z,81.65
2019-01-18T19:58:29.792Z,82.83
2019-01-18T20:02:06.939Z,80.85
2019-01-18T20:05:54.442Z,81.08
2019-01-18T20:08:46.103Z,81.72
2019-01-18T20:11:56.488Z,80.09
2019-01-18T20:15:28.867Z,80.46
2019-01-18T20:19:00.796Z,81.41
2019-01-18T20:22:08.094Z,80.08
2019-01-18T20:25:20.091Z,80.76
2019-01-18T20:28:39.099Z,80.46
2019-01-18T20:31:59.307Z,81.06
2019-01-18T20:35:33.017Z,81.51
2019-01-18T20:38:41.243Z,81.09
2019-01-18T20:41:39.346Z,82.29
2019-01-18T20:45:02.667Z,83.96
2019-01-18T20:48:15.614Z,85.23
2019-01-18T20:51:42.349Z,85.01
2019-01-18T20:55:19.476Z,82.42
2019-01-18T20:58:31.027Z,82.85
2019-01-18T21:01:54.798Z,81.15
2019-01-18T21:05:20.036Z,81.11
2019-01-18T21:08:28.443Z,80.72
2019-01-18T21:11:53.857Z,82.23
2019-01-18T21:15:10.212Z,81.98
2019-01-18T21:18:22.581Z,82.85
2019-01-18T21:21:23.928Z,82.71
2019-01-18T21:25:05.795Z,81.97
2019-01-18T21:28:46.102Z,82.69
2019-01-18T21:31:45.321Z,81.70
2019-01-18T21:34:47.051Z,81.28
2019-01-18T21:38:19.019Z,81.82
2019-01-18T21:41:11.219Z,83.69
2019-01-18T21:44:42.548Z,84.23
2019-01-18T21:48:19.799Z,83.46
2019-01-18T21:51:32.947Z,82.15
2019-01-18T21:54:56.584Z,83.12
2019-01-18T21:58:53.279Z,83.05
2019-01-18T22:02:16.993Z,82.79
2019-01-18T22:05:55.291Z,81.02
2019-01-18T22:09:04.389Z,82.56
2019-01-18T22:12:39.547Z,84.30
2019-01-18T22:16:05.226Z,82.85
2019-01-18T22:19:32.419Z,83.65
2019-01-18T22:23:08.138Z,83.11
2019-01-18T22:26:28.559Z,83.04
2019-01-18T22:29:55.217Z,82.61
2019-01-18T22:33:03.109Z,82.93
2019-01-18T22:36:42.332Z,82.75
2019-01-18T22:40:01.344Z,83.17
2019-01-18T22:43:16.540Z,84.30
2019-01-18T22:46:34.713Z,84.03
2019-01-18T22:49:35.595Z,83.73
2019-01-18T22:52:44.041Z,82.49
2019-01-18T22:56:15.613Z,82.45
2019-01-18T22:59:51.227Z,83.32
2019-01-18T23:02:54.119Z,83.50
2019-01-18T23:06:19.667Z,83.01
2019-01-18T23:09:53.192Z,82.70
2019-01-18T23:12:57.170Z,81.40
2019-01-18T23:16:09.074Z,82.35
2019-01-18T23:19:14.652Z,81.41
2019-01-18T23:23:02.740Z,80.61
2019-01-18T23:26:16.452Z,81.99
2019-01-18T23:29:33.570Z,81.60
2019-01-18T23:32:58.168Z,82.40
2019-01-18T23:36:14.234Z,81.57
2019-01-18T23:39:40.957Z,81.78
2019-01-18T23:42:44.247Z,83.53
2019-01-18T23:46:15.565Z,83.04
2019-01-18T23:49:16.835Z,83.69
2019-01-18T23:52:57.321Z,82.33
2019-01-18T23:56:16.491Z,81.79
2019-01-18T23:59:06.498Z,81.90
